Time;durP1;ratioP1;P1;durP2;ratioP2;P2;SDS_P1;SDS_P2;PMS_P1;PMS_P2;Temp;Humidity;BMP_temperature;BMP_pressure;BME280_temperature;BME280_humidity;BME280_pressure;Samples;Min_cycle;Max_cycle;Signal;HPM_P1;HPM_P2
2022/06/25 00:01:15;;;;;;;3.60;1.73;;;;;;;16.52;97.93;100724.34;5011550;28;20037;-87
2022/06/25 00:03:41;;;;;;;2.33;1.67;;;;;;;16.49;98.00;100733.03;5011999;28;20030;-87
2022/06/25 00:06:07;;;;;;;5.10;2.10;;;;;;;16.46;97.97;100726.31;5011785;28;20307;-87
2022/06/25 00:08:34;;;;;;;3.10;1.60;;;;;;;16.47;98.16;100737.94;5011708;28;20042;-87
2022/06/25 00:11:00;;;;;;;2.20;2.00;;;;;;;16.43;97.92;100721.50;5011261;28;20029;-87
2022/06/25 00:13:26;;;;;;;2.53;2.00;;;;;;;16.47;97.54;100735.25;5011685;28;20026;-87
2022/06/25 00:15:52;;;;;;;4.97;1.60;;;;;;;16.44;97.49;100735.84;5011938;28;20037;-88
2022/06/25 00:18:18;;;;;;;2.50;1.70;;;;;;;16.43;97.53;100737.72;5011828;28;20051;-88
2022/06/25 00:20:44;;;;;;;3.77;1.90;;;;;;;16.43;98.33;100740.44;5011196;28;20424;-88
2022/06/25 00:23:10;;;;;;;4.13;2.00;;;;;;;16.42;97.87;100744.25;5011530;28;20018;-88
2022/06/25 00:25:35;;;;;;;3.05;2.08;;;;;;;16.35;98.44;100741.13;5011392;28;20040;-87
2022/06/25 00:28:00;;;;;;;2.23;1.90;;;;;;;16.35;97.48;100736.53;5011803;28;20026;-87
2022/06/25 00:30:26;;;;;;;2.37;1.90;;;;;;;16.32;97.93;100733.63;5011828;28;20127;-86
2022/06/25 00:32:52;;;;;;;6.38;1.90;;;;;;;16.28;98.20;100732.59;5012046;28;20034;-87
2022/06/25 00:35:17;;;;;;;4.03;2.50;;;;;;;16.26;98.68;100737.50;5012314;28;20030;-87
2022/06/25 00:37:42;;;;;;;3.90;2.63;;;;;;;16.27;98.58;100739.09;5012577;28;20029;-88
2022/06/25 00:40:10;;;;;;;4.20;2.43;;;;;;;16.22;98.84;100740.00;5012488;28;20029;-87
2022/06/25 00:42:35;;;;;;;6.88;2.40;;;;;;;16.22;98.42;100733.81;5012084;28;20125;-88
2022/06/25 00:45:00;;;;;;;5.07;2.55;;;;;;;16.23;99.21;100740.84;5011570;28;20061;-87
2022/06/25 00:47:29;;;;;;;2.70;2.07;;;;;;;16.15;98.57;100737.69;5011384;28;20448;-87
2022/06/25 00:49:54;;;;;;;4.53;2.15;;;;;;;16.14;99.39;100736.09;4993908;28;20096;-87
2022/06/25 00:52:21;;;;;;;3.30;1.77;;;;;;;16.11;99.03;100735.91;5011139;28;20029;-88
2022/06/25 00:54:55;;;;;;;3.95;1.98;;;;;;;16.09;98.75;100749.69;5010974;28;20433;-87
2022/06/25 00:57:31;;;;;;;5.00;2.10;;;;;;;16.06;99.21;100750.31;5011343;28;20030;-87
2022/06/25 01:00:02;;;;;;;3.07;2.00;;;;;;;16.05;99.29;100746.00;5011649;28;20081;-87
2022/06/25 01:02:28;;;;;;;3.50;2.07;;;;;;;16.00;99.77;100744.16;5011620;28;20285;-87
2022/06/25 01:04:53;;;;;;;2.25;1.88;;;;;;;15.94;99.39;100748.06;5011613;28;20025;-87
2022/06/25 01:07:19;;;;;;;3.90;2.23;;;;;;;15.95;99.96;100759.66;5011510;28;20022;-87
2022/06/25 01:09:46;;;;;;;2.63;1.80;;;;;;;15.97;99.52;100760.19;5011924;28;20097;-87
2022/06/25 01:12:12;;;;;;;5.07;2.17;;;;;;;15.89;99.85;100748.94;5012574;28;20056;-87
2022/06/25 02:43:39;;;;;;;5.47;2.67;;;;;;;15.05;100.00;100847.56;5166142;23;20796;-87
2022/06/25 02:46:07;;;;;;;4.20;2.80;;;;;;;14.84;100.00;100825.41;5014193;28;20029;-87
2022/06/25 02:48:42;;;;;;;4.78;2.70;;;;;;;14.94;100.00;100844.19;5014173;28;20033;-87
2022/06/25 02:51:08;;;;;;;4.22;2.78;;;;;;;15.03;100.00;100857.03;5013811;28;20030;-87
2022/06/25 02:59:36;;;;;;;5.30;3.25;;;;;;;14.75;100.00;100833.31;4994487;28;20089;-87
2022/06/25 03:04:39;;;;;;;7.15;3.40;;;;;;;14.98;100.00;100866.78;5224404;23;20069;-87
2022/06/25 03:07:05;;;;;;;8.27;3.40;;;;;;;15.04;100.00;100872.13;5013715;28;20469;-87
2022/06/25 03:09:30;;;;;;;6.60;3.38;;;;;;;15.09;100.00;100866.69;5013918;28;20064;-87
2022/06/25 03:11:56;;;;;;;6.80;3.17;;;;;;;15.05;100.00;100866.47;5013927;28;20046;-87
2022/06/25 03:14:21;;;;;;;3.83;3.13;;;;;;;15.06;100.00;100864.56;5110835;23;20574;-86
2022/06/25 03:16:46;;;;;;;6.63;3.30;;;;;;;15.04;100.00;100861.34;4994488;28;20034;-87
2022/06/25 03:19:12;;;;;;;4.90;3.40;;;;;;;15.08;100.00;100867.78;4994083;28;20034;-87
2022/06/25 03:21:38;;;;;;;6.75;2.85;;;;;;;15.03;100.00;100867.81;4993721;28;20493;-87
2022/06/25 03:24:04;;;;;;;6.43;3.10;;;;;;;15.06;100.00;100876.16;4993672;28;20061;-87
2022/06/25 03:29:47;;;;;;;6.63;2.97;;;;;;;15.04;100.00;100875.66;5154645;23;20061;-87
2022/06/25 03:32:13;;;;;;;7.73;2.80;;;;;;;15.03;100.00;100878.63;5012189;28;20034;-86
2022/06/25 04:26:54;;;;;;;3.95;2.70;;;;;;;16.53;96.79;100899.00;4985304;23;20059;-87
2022/06/25 04:29:19;;;;;;;9.03;2.80;;;;;;;16.65;94.82;100901.25;4954234;29;20047;-87
2022/06/25 04:31:47;;;;;;;4.53;2.40;;;;;;;16.60;94.93;100906.75;4953759;28;20019;-87
2022/06/25 05:09:03;;;;;;;4.57;2.20;;;;;;;22.69;67.80;100952.84;4951786;29;20282;-89
2022/06/25 05:11:53;;;;;;;6.82;1.85;;;;;;;21.51;69.14;100950.88;4953103;28;20068;-89
2022/06/25 05:14:18;;;;;;;3.30;1.90;;;;;;;20.91;71.12;100953.50;4934614;29;20110;-89
2022/06/25 05:16:45;;;;;;;4.23;2.07;;;;;;;20.79;70.93;100953.41;4934692;29;20059;-89
2022/06/25 05:19:11;;;;;;;3.97;1.88;;;;;;;20.34;72.65;100949.91;4934082;29;20043;-89
2022/06/25 05:21:36;;;;;;;3.05;1.90;;;;;;;20.01;74.39;100950.41;4933440;29;20035;-89
2022/06/25 05:24:02;;;;;;;4.83;2.20;;;;;;;19.55;75.88;100951.72;4934185;29;20055;-89
2022/06/25 05:26:28;;;;;;;4.70;2.10;;;;;;;19.67;76.51;100954.63;4934536;29;20047;-89
2022/06/25 05:28:53;;;;;;;6.03;2.13;;;;;;;20.41;73.71;100952.13;4938517;29;20498;-88
2022/06/25 05:31:19;;;;;;;4.27;1.90;;;;;;;21.46;70.74;100965.47;4937892;29;20280;-88
2022/06/25 05:33:44;;;;;;;6.10;2.13;;;;;;;21.85;67.99;100954.53;4937630;29;20032;-88
2022/06/25 05:36:09;;;;;;;2.77;2.10;;;;;;;22.29;66.54;100958.81;4937806;29;20039;-89
2022/06/25 05:38:35;;;;;;;3.97;1.70;;;;;;;22.97;63.36;100963.94;4938594;29;20035;-89
2022/06/25 05:41:00;;;;;;;4.60;2.23;;;;;;;23.37;62.52;100965.25;4938146;29;20035;-89
2022/06/25 05:43:25;;;;;;;3.50;1.83;;;;;;;24.53;60.04;100979.59;4938286;29;20058;-89
2022/06/25 05:45:51;;;;;;;3.97;2.10;;;;;;;25.25;55.30;100969.72;4938423;29;20318;-89
2022/06/25 05:48:16;;;;;;;4.87;1.87;;;;;;;25.60;53.79;100979.94;4938623;29;20031;-89
2022/06/25 05:50:41;;;;;;;8.60;2.20;;;;;;;25.88;54.03;100987.19;4937822;29;20051;-90
2022/06/25 05:53:07;;;;;;;6.25;1.95;;;;;;;26.02;52.50;100988.69;4937851;29;20027;-90
2022/06/25 05:55:34;;;;;;;5.07;1.87;;;;;;;25.63;52.63;100981.16;4921139;29;20043;-90
2022/06/25 05:57:59;;;;;;;7.47;2.38;;;;;;;24.93;55.18;100991.63;4937797;29;20500;-90
2022/06/25 06:00:26;;;;;;;5.87;1.90;;;;;;;24.11;57.49;100991.75;4936726;29;20055;-89
2022/06/25 06:02:51;;;;;;;4.63;2.05;;;;;;;23.10;60.50;100989.38;4936989;29;20023;-90
2022/06/25 06:05:19;;;;;;;4.27;2.07;;;;;;;22.59;62.48;100991.53;4937900;29;20457;-89
2022/06/25 06:07:44;;;;;;;6.18;2.08;;;;;;;22.13;63.86;100997.63;4937619;29;20114;-90
2022/06/25 06:10:10;;;;;;;7.47;2.07;;;;;;;22.18;62.67;100999.38;4936922;29;20099;-90
2022/06/25 06:30:48;;;;;;;9.05;2.30;;;;;;;21.79;65.22;101004.94;4690548;23;20059;-89
2022/06/25 06:33:13;;;;;;;7.28;2.30;;;;;;;21.77;66.04;101020.81;5153475;23;20055;-89
2022/06/25 06:35:38;;;;;;;5.23;2.23;;;;;;;21.88;66.87;101022.06;4959530;29;20098;-90
2022/06/25 06:38:04;;;;;;;8.10;2.47;;;;;;;21.79;66.40;101018.56;4959940;28;20533;-90
2022/06/25 06:40:29;;;;;;;3.40;2.20;;;;;;;21.76;66.39;101006.41;4957468;29;20039;-89
2022/06/25 06:42:58;;;;;;;5.53;2.20;;;;;;;21.91;67.12;101024.09;4956894;28;20034;-91
2022/06/25 06:45:23;;;;;;;4.37;2.30;;;;;;;21.97;66.81;101022.00;4956787;28;20031;-91
2022/06/25 06:47:51;;;;;;;5.67;2.37;;;;;;;21.93;66.10;101021.84;4957145;28;20694;-90
2022/06/25 06:50:17;;;;;;;3.80;1.95;;;;;;;21.98;65.72;101023.59;4955553;28;20035;-90
2022/06/25 06:52:43;;;;;;;6.13;2.57;;;;;;;21.81;66.68;101012.78;4956517;28;20078;-90
2022/06/25 06:55:08;;;;;;;6.20;2.10;;;;;;;21.56;67.09;101009.84;4956064;28;20023;-90
2022/06/25 06:57:34;;;;;;;5.80;2.20;;;;;;;21.44;67.91;101029.63;4955153;29;20546;-90
2022/06/25 07:00:04;;;;;;;5.50;2.22;;;;;;;21.30;69.23;101016.19;4956153;28;20046;-90
2022/06/25 07:02:30;;;;;;;4.75;2.30;;;;;;;21.03;69.90;101023.66;4955461;28;20384;-90
2022/06/25 07:04:55;;;;;;;3.53;2.30;;;;;;;20.71;71.09;101012.94;4956618;28;20027;-90
2022/06/25 07:07:20;;;;;;;5.33;1.93;;;;;;;20.79;71.64;101016.03;4956150;28;20032;-91
2022/06/25 07:09:49;;;;;;;3.40;2.30;;;;;;;20.92;72.53;101017.75;4956233;29;20034;-90
2022/06/25 07:12:14;;;;;;;3.17;2.03;;;;;;;21.28;72.73;101021.16;4956976;28;20086;-91
2022/06/25 07:14:42;;;;;;;3.57;1.80;;;;;;;21.40;69.68;101020.47;4956340;29;20759;-90
2022/06/25 07:17:07;;;;;;;4.60;2.00;;;;;;;21.83;70.23;101026.88;4956494;28;20505;-90
2022/06/25 07:19:33;;;;;;;4.47;1.90;;;;;;;22.03;68.44;101028.06;4958382;28;20124;-91
2022/06/25 07:21:58;;;;;;;7.17;2.10;;;;;;;22.22;66.88;101011.22;4958588;28;20150;-91
2022/06/25 07:24:24;;;;;;;6.43;1.90;;;;;;;22.27;65.81;101018.44;4956545;29;20027;-91
2022/06/25 07:26:50;;;;;;;5.15;1.80;;;;;;;22.31;65.83;101020.16;4957741;28;20082;-90
2022/06/25 07:29:18;;;;;;;3.88;2.00;;;;;;;22.43;65.71;101024.91;4956633;28;20050;-91
2022/06/25 07:31:43;;;;;;;3.30;2.03;;;;;;;22.50;64.54;101027.09;4957646;28;20031;-90
2022/06/25 07:34:09;;;;;;;5.70;1.90;;;;;;;22.51;65.81;101028.69;4980198;28;20394;-90
2022/06/25 07:36:34;;;;;;;4.70;1.90;;;;;;;22.39;64.49;101026.66;4980197;28;20088;-90
2022/06/25 07:39:03;;;;;;;4.60;2.00;;;;;;;22.68;65.58;101034.00;4980734;28;20058;-90
2022/06/25 07:41:28;;;;;;;4.03;1.50;;;;;;;23.02;64.74;101035.91;4988331;28;20034;-90
2022/06/25 07:43:53;;;;;;;3.57;1.73;;;;;;;22.77;63.23;101025.72;4994305;28;20290;-90
2022/06/25 07:46:19;;;;;;;4.07;1.87;;;;;;;22.65;64.07;101040.13;4992926;28;20103;-91
2022/06/25 07:48:45;;;;;;;3.50;1.80;;;;;;;22.61;63.91;101041.91;4996617;28;20109;-91
2022/06/25 07:53:54;;;;;;;4.20;1.95;;;;;;;22.60;63.96;101036.81;4976035;28;20489;-90
2022/06/25 07:56:19;;;;;;;2.87;1.70;;;;;;;22.84;63.94;101050.53;4975347;28;20031;-90
2022/06/25 07:59:02;;;;;;;3.60;1.63;;;;;;;23.44;63.50;101041.25;4974634;28;20085;-90
2022/06/25 08:01:28;;;;;;;2.10;1.35;;;;;;;24.10;61.51;101046.84;4974215;28;20027;-90
2022/06/25 08:03:53;;;;;;;5.50;1.80;;;;;;;24.20;59.15;101041.66;4974517;28;20033;-90
2022/06/25 08:06:18;;;;;;;3.00;1.73;;;;;;;24.26;59.57;101049.63;4974666;28;20483;-90
2022/06/25 08:08:43;;;;;;;5.23;2.00;;;;;;;24.24;58.45;101043.69;4958059;28;20059;-90
2022/06/25 08:11:12;;;;;;;3.00;1.67;;;;;;;24.29;58.06;101046.22;4974723;28;20031;-90
2022/06/25 08:13:37;;;;;;;4.50;1.80;;;;;;;24.17;58.11;101036.91;4975460;28;20566;-90
2022/06/25 08:16:07;;;;;;;4.30;2.10;;;;;;;23.84;60.57;101037.81;4975469;28;20066;-91
2022/06/25 08:18:33;;;;;;;3.53;1.93;;;;;;;23.65;59.89;101038.41;4976238;28;20285;-90
2022/06/25 08:21:05;;;;;;;1.77;1.50;;;;;;;23.52;61.06;101039.56;4977113;28;20027;-90
2022/06/25 08:23:30;;;;;;;2.58;1.52;;;;;;;23.43;60.77;101042.41;5024129;23;20105;-90
2022/06/25 08:25:59;;;;;;;2.73;1.53;;;;;;;23.25;61.65;101050.00;5033184;28;20041;-90
2022/06/25 08:28:24;;;;;;;3.67;1.60;;;;;;;23.07;61.46;101049.38;5033170;28;20057;-90
2022/06/25 08:30:53;;;;;;;2.37;1.50;;;;;;;22.97;61.78;101061.53;5034787;28;20034;-90
2022/06/25 08:33:18;;;;;;;6.22;1.60;;;;;;;22.85;61.73;101034.97;5033078;28;20010;-90
2022/06/25 08:35:43;;;;;;;2.90;1.70;;;;;;;23.37;61.11;101052.72;5017770;28;20072;-90
2022/06/25 08:38:09;;;;;;;2.63;1.60;;;;;;;24.20;59.80;101054.56;5034513;28;20026;-90
2022/06/25 08:40:34;;;;;;;2.67;1.60;;;;;;;24.73;57.28;101042.75;5032464;28;20021;-91
2022/06/25 08:43:07;;;;;;;3.03;1.60;;;;;;;24.72;57.15;101024.72;5048964;23;20353;-91
2022/06/25 08:45:46;;;;;;;3.70;1.60;;;;;;;25.17;56.58;101018.09;5013641;28;20073;-90
2022/06/25 08:48:16;;;;;;;2.55;1.75;;;;;;;25.40;55.33;101053.09;5013422;28;20022;-90
2022/06/25 08:50:44;;;;;;;7.30;1.70;;;;;;;25.59;53.09;101054.34;5005315;28;20038;-91
2022/06/25 08:53:41;;;;;;;2.97;1.50;;;;;;;26.06;55.46;101058.97;5013672;28;20847;-90
2022/06/25 08:56:14;;;;;;;1.85;1.38;;;;;;;26.08;52.29;101053.91;5016170;28;20030;-91
2022/06/25 08:58:43;;;;;;;3.95;1.80;;;;;;;25.07;54.03;101040.53;5014230;28;20034;-91
2022/06/25 09:01:10;;;;;;;3.58;1.73;;;;;;;24.65;55.95;101042.53;5013657;28;20022;-89
2022/06/25 09:03:39;;;;;;;4.40;1.50;;;;;;;24.57;57.35;101057.19;5017883;28;20092;-91
2022/06/25 09:06:15;;;;;;;3.40;1.37;;;;;;;24.64;57.57;101060.13;5019911;28;20029;-90
2022/06/25 09:08:45;;;;;;;2.03;1.50;;;;;;;24.29;57.46;101060.69;5036656;28;20293;-90
2022/06/25 09:11:11;;;;;;;2.88;1.30;;;;;;;24.01;58.88;101057.91;5036330;28;20102;-90
2022/06/25 09:13:36;;;;;;;6.72;1.48;;;;;;;24.10;58.69;101055.84;5036336;28;20025;-91
2022/06/25 09:16:04;;;;;;;3.37;1.57;;;;;;;24.43;57.45;101052.09;5036377;28;20014;-91
2022/06/25 09:18:34;;;;;;;4.57;1.40;;;;;;;24.81;56.01;101061.00;5019212;28;20022;-90
2022/06/25 09:21:07;;;;;;;3.88;1.80;;;;;;;25.18;55.07;101051.75;5012404;28;20428;-91
2022/06/25 09:23:55;;;;;;;3.15;1.50;;;;;;;25.70;56.10;101055.41;5012782;28;20029;-91
2022/06/25 09:26:21;;;;;;;2.15;1.40;;;;;;;26.03;53.00;101051.44;5012456;28;20041;-90
2022/06/25 09:28:46;;;;;;;4.17;1.80;;;;;;;25.99;52.58;101047.81;5012894;28;20022;-90
2022/06/25 09:31:32;;;;;;;2.27;1.50;;;;;;;25.52;52.75;101049.50;5014523;28;20037;-90
2022/06/25 09:34:02;;;;;;;3.47;1.77;;;;;;;25.27;55.04;101035.97;5016055;28;20147;-91
2022/06/25 09:36:27;;;;;;;3.00;1.48;;;;;;;25.24;55.04;101050.38;5017356;28;20440;-90
2022/06/25 09:38:52;;;;;;;3.73;1.60;;;;;;;24.85;55.17;101053.66;5014370;28;20026;-90
2022/06/25 09:41:17;;;;;;;5.37;1.97;;;;;;;24.72;55.40;101055.69;5022903;28;20049;-91
2022/06/25 09:43:47;;;;;;;3.95;1.60;;;;;;;24.81;55.44;101058.25;5036106;28;20034;-90
2022/06/25 09:46:13;;;;;;;3.63;1.90;;;;;;;25.00;55.49;101049.34;5035988;28;20034;-90
2022/06/25 09:48:41;;;;;;;2.35;1.35;;;;;;;24.98;54.89;101054.41;5036085;28;20049;-91
2022/06/25 09:51:18;;;;;;;2.53;1.55;;;;;;;24.65;54.58;101052.69;5035786;28;20018;-91
2022/06/25 09:53:52;;;;;;;3.33;1.52;;;;;;;24.86;54.45;101051.72;5018496;28;20014;-90
2022/06/25 09:56:29;;;;;;;3.87;1.53;;;;;;;24.85;54.39;101050.91;5014599;28;20029;-90
2022/06/25 09:58:55;;;;;;;5.10;1.77;;;;;;;25.32;54.50;101059.56;5012914;28;20320;-91
2022/06/25 10:06:35;;;;;;;4.70;1.75;;;;;;;25.86;52.21;101063.59;5100721;23;20050;-91
2022/06/25 10:09:09;;;;;;;3.47;1.50;;;;;;;25.67;52.41;101061.63;4993803;28;20481;-90
2022/06/25 10:11:37;;;;;;;2.80;1.30;;;;;;;26.14;51.37;101070.94;5011137;28;20489;-90
2022/06/25 10:14:03;;;;;;;1.95;1.60;;;;;;;26.46;51.33;101059.81;5014343;28;20061;-91
2022/06/25 10:16:29;;;;;;;4.38;1.40;;;;;;;26.51;49.01;101058.72;5015503;28;20029;-90
2022/06/25 10:18:55;;;;;;;1.77;1.43;;;;;;;26.55;49.83;101059.59;5016546;28;20034;-91
2022/06/25 10:26:31;;;;;;;1.70;1.20;;;;;;;26.32;50.95;101056.78;4898554;26;20053;-91
2022/06/25 10:28:57;;;;;;;2.38;1.13;;;;;;;26.54;48.54;101053.31;5019640;28;20033;-91
2022/06/25 10:36:49;;;;;;;2.15;1.15;;;;;;;27.14;49.59;101056.78;5296596;23;20046;-90
2022/06/25 10:39:26;;;;;;;3.13;1.27;;;;;;;28.02;48.42;101059.75;5014606;28;20038;-90
2022/06/25 10:44:54;;;;;;;2.85;1.40;;;;;;;28.35;46.07;101047.19;5017740;28;20044;-91
2022/06/25 10:47:37;;;;;;;1.47;1.10;;;;;;;27.98;46.66;101056.13;5019711;28;20078;-90
2022/06/25 10:50:21;;;;;;;2.92;1.20;;;;;;;28.00;46.11;101062.06;4997711;28;20056;-90
2022/06/25 10:53:10;;;;;;;1.63;1.40;;;;;;;27.79;46.47;101053.16;4998011;28;20069;-91
2022/06/25 10:55:47;;;;;;;1.53;1.10;;;;;;;27.12;46.45;101048.13;5003469;28;20030;-90
2022/06/25 10:58:18;;;;;;;1.73;1.13;;;;;;;27.02;48.68;101042.03;5016844;28;20281;-90
2022/06/25 11:00:58;;;;;;;1.05;0.80;;;;;;;27.75;46.36;101040.50;5017270;28;20080;-91
2022/06/25 11:03:27;;;;;;;1.92;1.00;;;;;;;28.23;43.40;101054.53;5022747;28;20108;-90
2022/06/25 11:05:53;;;;;;;1.90;1.20;;;;;;;28.28;44.55;101049.88;5015881;28;20088;-91
2022/06/25 11:08:18;;;;;;;2.15;1.30;;;;;;;28.18;42.96;101037.56;5014886;28;20469;-91
2022/06/25 11:49:05;;;;;;;2.75;1.40;;;;;;;29.36;43.32;101048.28;5741427;23;20072;-91
2022/06/25 11:51:31;;;;;;;1.52;1.27;;;;;;;29.49;40.06;101047.97;5013456;28;20036;-91
2022/06/25 11:53:57;;;;;;;1.35;1.08;;;;;;;29.80;41.07;101043.84;5013769;28;20030;-91
2022/06/25 11:56:22;;;;;;;1.73;1.00;;;;;;;29.94;40.74;101047.84;5013990;28;20517;-91
2022/06/25 11:58:48;;;;;;;1.27;1.17;;;;;;;30.10;40.09;101033.75;5013301;28;20138;-90
2022/06/25 12:01:13;;;;;;;1.93;1.47;;;;;;;30.01;40.18;100996.22;5032721;23;20095;-91
2022/06/25 12:04:05;;;;;;;2.53;1.30;;;;;;;30.15;40.49;101041.66;5013062;28;20029;-90
2022/06/25 12:07:04;;;;;;;1.85;1.10;;;;;;;29.81;41.32;101039.91;5013173;28;20033;-90
2022/06/25 12:10:38;;;;;;;2.53;1.40;;;;;;;29.29;40.16;101040.69;4998609;28;20064;-90
2022/06/25 12:17:40;;;;;;;2.03;1.33;;;;;;;29.45;41.20;101015.59;4876070;29;20128;-90
2022/06/25 12:23:09;;;;;;;4.38;1.42;;;;;;;30.00;39.28;101027.00;5354744;23;20054;-91
2022/06/25 12:30:12;;;;;;;2.50;1.17;;;;;;;29.97;40.60;101005.69;5017672;28;20280;-90
2022/06/25 12:36:23;;;;;;;1.20;1.10;;;;;;;29.43;40.02;101008.88;5015775;28;20171;-90
2022/06/25 12:40:20;;;;;;;;;;;;;;;;;;;;;
2022/06/25 12:56:14;;;;;;;;;;;;;;;;;;;;;
2022/06/25 13:05:49;;;;;;;4.30;1.20;;;;;;;30.52;38.91;101001.91;5012093;28;20037;-91
2022/06/25 13:11:37;;;;;;;2.28;1.20;;;;;;;30.40;37.80;100999.50;5011134;28;20497;-89
2022/06/25 13:14:39;;;;;;;2.65;1.20;;;;;;;30.25;39.02;101032.63;5013923;28;20393;-91
2022/06/25 13:17:32;;;;;;;1.52;1.42;;;;;;;30.26;39.56;101009.34;4995048;28;20371;-91
2022/06/25 13:22:47;;;;;;;1.67;1.40;;;;;;;29.85;39.49;101010.34;5017016;23;20061;-90
2022/06/25 13:32:02;;;;;;;2.88;1.40;;;;;;;29.16;41.74;101018.13;5011204;28;20060;-90
2022/06/25 13:38:20;;;;;;;2.20;1.15;;;;;;;29.60;40.36;100994.41;4913009;29;20068;-90
2022/06/25 13:40:45;;;;;;;7.68;1.60;;;;;;;30.22;40.26;100986.44;4936867;28;20485;-90
2022/06/25 13:43:37;;;;;;;3.10;1.30;;;;;;;30.57;39.39;101015.38;5012511;28;20029;-90
2022/06/25 13:46:05;;;;;;;2.25;1.52;;;;;;;29.95;39.29;100981.16;5012088;28;20022;-91
2022/06/25 13:51:51;;;;;;;2.13;1.45;;;;;;;31.07;40.09;100992.50;5680994;23;20049;-91
2022/06/25 13:54:35;;;;;;;4.35;1.88;;;;;;;31.14;37.86;100997.28;5016951;28;20026;-90
2022/06/25 13:57:31;;;;;;;3.10;1.30;;;;;;;31.15;37.75;100993.31;5016137;28;20018;-90
2022/06/25 14:03:00;;;;;;;1.30;1.20;;;;;;;31.01;38.20;100991.31;4996623;28;20431;-90
2022/06/25 14:05:26;;;;;;;1.80;1.08;;;;;;;30.50;37.72;100965.56;4996172;28;20490;-91
2022/06/25 14:08:14;;;;;;;2.10;1.33;;;;;;;31.01;39.40;100979.47;4996463;28;20034;-90
2022/06/25 14:10:39;;;;;;;2.47;1.20;;;;;;;31.62;37.96;100986.91;4996401;28;20026;-90
2022/06/25 14:13:18;;;;;;;;;;;;;;;;;;;;;
2022/06/25 14:15:59;;;;;;;1.42;1.20;;;;;;;31.51;36.50;100981.38;4934695;29;20480;-91
2022/06/25 14:19:07;;;;;;;3.93;1.30;;;;;;;31.72;36.92;100992.44;4935797;29;20027;-91
2022/06/25 14:27:51;;;;;;;2.50;1.42;;;;;;;31.49;35.42;101001.19;4995546;28;20056;-90
2022/06/25 14:30:20;;;;;;;4.25;1.50;;;;;;;31.18;36.02;100997.25;4995316;28;20022;-91
2022/06/25 14:32:49;;;;;;;1.67;1.40;;;;;;;31.01;36.16;100973.94;4995209;28;20462;-90
2022/06/25 14:35:15;;;;;;;1.77;1.33;;;;;;;31.46;35.30;100985.38;4995033;28;20029;-90
2022/06/25 14:43:51;;;;;;;1.60;1.50;;;;;;;33.05;33.20;100962.38;4995914;28;20049;-90
2022/06/25 15:05:28;;;;;;;2.28;1.50;;;;;;;29.34;38.04;100964.25;6040783;23;20051;-89
2022/06/25 15:07:55;;;;;;;1.50;1.40;;;;;;;28.85;39.31;100967.81;4957087;29;20514;-91
2022/06/25 15:10:45;;;;;;;2.10;1.40;;;;;;;28.60;40.16;100973.06;5037963;23;20062;-90
2022/06/25 15:13:11;;;;;;;1.60;1.20;;;;;;;27.94;41.22;100963.25;4955310;29;20035;-90
2022/06/25 15:16:31;;;;;;;1.00;1.00;;;;;;;27.89;41.56;100940.78;4955556;29;20518;-90
2022/06/25 15:42:50;;;;;;;1.23;1.05;;;;;;;27.71;44.75;100960.63;4881485;29;20056;-90
2022/06/25 15:45:15;;;;;;;2.58;1.13;;;;;;;27.66;44.38;100960.97;4881223;29;20037;-90
2022/06/25 15:48:17;;;;;;;3.13;1.00;;;;;;;27.89;44.66;100958.09;4880247;29;20025;-91
2022/06/25 15:54:34;;;;;;;1.25;1.10;;;;;;;27.65;44.23;100948.38;4883940;29;20079;-90
2022/06/25 15:57:06;;;;;;;1.10;1.10;;;;;;;27.36;45.57;100920.41;4880057;29;20029;-90
2022/06/25 15:59:47;;;;;;;2.83;1.27;;;;;;;27.56;45.27;100939.56;4879461;29;20033;-90
2022/06/25 16:02:12;;;;;;;1.73;1.20;;;;;;;27.49;45.68;100941.06;4917592;23;20312;-90
2022/06/25 16:04:48;;;;;;;1.77;1.10;;;;;;;27.70;45.07;100931.50;4898270;29;20121;-90
2022/06/25 16:21:08;;;;;;;2.55;1.10;;;;;;;28.17;41.95;100939.56;5245280;23;20064;-90
2022/06/25 16:27:19;;;;;;;1.10;0.88;;;;;;;27.95;43.48;100928.28;4839299;29;20155;-90
2022/06/25 16:29:45;;;;;;;1.33;1.10;;;;;;;27.92;43.85;100934.53;4842261;29;20061;-91
2022/06/25 16:32:20;;;;;;;2.63;0.95;;;;;;;27.86;43.74;100922.25;4818582;29;20066;-90
2022/06/25 16:35:27;;;;;;;1.30;1.20;;;;;;;27.95;44.41;100951.09;4860183;29;20086;-90
2022/06/25 16:38:29;;;;;;;1.17;0.90;;;;;;;27.77;43.64;100944.56;4885342;29;20047;-91
2022/06/25 16:41:24;;;;;;;1.90;1.10;;;;;;;27.59;44.28;100922.31;4916680;29;20293;-90
2022/06/25 16:44:08;;;;;;;1.40;0.90;;;;;;;27.58;44.76;100917.97;4862074;29;20043;-90
2022/06/25 17:20:10;;;;;;;4.40;2.78;;;;;;;24.22;58.87;100956.47;5095396;23;20183;-90
2022/06/25 17:22:36;;;;;;;5.27;2.80;;;;;;;24.08;60.10;100981.47;4899347;29;20504;-89
2022/06/25 17:25:01;;;;;;;5.43;3.10;;;;;;;23.63;64.56;100990.66;4882082;29;20458;-90
2022/06/25 17:27:26;;;;;;;4.40;3.97;;;;;;;23.06;66.51;100995.84;4899149;29;20020;-90
2022/06/25 17:29:52;;;;;;;6.73;4.33;;;;;;;22.58;69.13;100995.38;4898554;29;20464;-89
2022/06/25 17:35:39;;;;;;;6.07;4.45;;;;;;;21.71;72.21;101022.94;4920433;28;20101;-90
2022/06/25 17:38:05;;;;;;;8.82;5.40;;;;;;;21.44;77.63;101005.09;4920514;28;20071;-90
2022/06/25 17:40:38;;;;;;;7.10;5.40;;;;;;;21.20;77.61;101000.22;4920099;28;20017;-88
2022/06/25 17:43:16;;;;;;;10.65;5.40;;;;;;;20.88;77.38;100995.81;4919597;29;20021;-88
2022/06/25 17:51:56;;;;;;;7.65;5.03;;;;;;;20.51;83.08;101033.47;4683510;27;20109;-89
2022/06/25 17:54:21;;;;;;;8.03;4.73;;;;;;;20.28;82.79;101027.34;4879989;29;20068;-89
2022/06/25 17:56:47;;;;;;;5.73;4.83;;;;;;;20.32;82.69;101022.88;4863013;29;20376;-89
2022/06/25 17:59:12;;;;;;;5.73;4.80;;;;;;;20.42;81.92;101025.31;4879868;29;20112;-89
2022/06/25 18:01:37;;;;;;;6.37;4.93;;;;;;;20.41;83.25;101026.44;4877746;29;20073;-89
2022/06/25 18:04:03;;;;;;;6.43;4.60;;;;;;;20.16;82.84;101019.03;4877829;29;20028;-89
2022/06/25 18:06:28;;;;;;;7.33;5.10;;;;;;;20.07;84.29;101038.06;4878142;29;20414;-89
2022/06/25 18:08:53;;;;;;;5.97;4.45;;;;;;;19.95;83.03;101027.81;4878104;29;20093;-89
2022/06/25 18:20:37;;;;;;;4.83;3.50;;;;;;;20.01;79.56;101001.25;4918163;23;20308;-88
2022/06/25 18:42:37;;;;;;;7.18;3.30;;;;;;;20.08;77.25;101001.59;4854680;29;20060;-88
2022/06/25 18:49:20;;;;;;;5.25;3.47;;;;;;;20.15;75.91;101014.72;4881908;29;20044;-88
2022/06/25 18:59:00;;;;;;;4.30;3.37;;;;;;;19.94;76.95;101002.53;4881199;29;20052;-88
2022/06/25 19:05:19;;;;;;;6.18;3.33;;;;;;;19.43;77.93;100982.22;4787131;30;20099;-88
2022/06/25 19:08:06;;;;;;;5.40;3.30;;;;;;;19.59;77.43;101023.34;4787551;29;20054;-88
2022/06/25 19:11:18;;;;;;;4.50;2.95;;;;;;;19.65;77.44;101019.38;4787077;30;20051;-88
2022/06/25 19:14:22;;;;;;;5.82;3.50;;;;;;;19.39;77.12;100992.13;4791357;30;20080;-88
2022/06/25 19:34:30;;;;;;;4.10;2.83;;;;;;;19.14;77.67;101029.69;4732564;30;20846;-88
2022/06/25 19:40:33;;;;;;;3.60;2.47;;;;;;;18.80;79.42;100995.78;4725373;30;20493;-88
2022/06/25 19:42:58;;;;;;;6.18;2.80;;;;;;;18.79;78.99;100991.44;4751170;30;20109;-88
2022/06/25 19:45:24;;;;;;;4.83;2.70;;;;;;;19.11;78.88;101027.59;4773735;29;20456;-88
2022/06/25 19:47:49;;;;;;;5.28;3.17;;;;;;;19.13;78.83;101023.47;4794911;29;20721;-87
2022/06/25 19:50:15;;;;;;;3.70;2.70;;;;;;;19.03;78.50;101021.00;4842078;29;20104;-88
2022/06/25 19:52:41;;;;;;;4.97;2.60;;;;;;;18.98;78.78;101018.44;4880530;29;20029;-87
2022/06/25 19:55:17;;;;;;;4.20;2.47;;;;;;;19.04;78.33;101030.75;4880271;29;20037;-87
2022/06/25 19:57:42;;;;;;;4.07;2.90;;;;;;;19.08;78.26;101030.97;4879888;29;20533;-87
2022/06/25 20:00:11;;;;;;;5.10;3.00;;;;;;;19.03;78.94;101034.59;4880141;29;20115;-88
2022/06/25 20:02:39;;;;;;;6.22;2.65;;;;;;;18.96;79.11;101045.09;4879596;29;20491;-87
2022/06/25 20:05:06;;;;;;;3.75;2.40;;;;;;;19.03;79.18;101053.59;4879739;29;20481;-88
2022/06/25 20:07:31;;;;;;;3.33;2.42;;;;;;;19.05;78.83;101048.66;4880016;29;20033;-88
2022/06/25 20:10:08;;;;;;;6.37;2.80;;;;;;;18.91;78.18;101024.25;4996260;23;20037;-88
2022/06/25 20:13:21;;;;;;;4.90;2.70;;;;;;;19.15;78.27;101051.13;4897616;29;20044;-88
2022/06/25 20:16:33;;;;;;;4.90;3.20;;;;;;;19.00;78.67;101048.78;4898165;29;20041;-88